createdAt,value
2019-05-02T00:02:28.918Z,11.32
2019-05-02T00:04:56.987Z,11.31
2019-05-02T00:07:26.750Z,11.25
2019-05-02T00:09:56.362Z,11.21
2019-05-02T00:12:24.987Z,11.22
2019-05-02T00:14:56.614Z,11.18
2019-05-02T00:17:25.572Z,11.17
2019-05-02T00:19:51.391Z,11.09
2019-05-02T00:22:21.650Z,11.12
2019-05-02T00:24:51.330Z,11.07
2019-05-02T00:27:19.973Z,11.06
2019-05-02T00:29:48.367Z,11.04
2019-05-02T00:32:22.465Z,10.91
2019-05-02T00:37:32.528Z,10.82
2019-05-02T00:40:00.782Z,10.78
2019-05-02T00:42:27.337Z,10.74
2019-05-02T00:44:54.026Z,10.68
2019-05-02T00:47:22.741Z,10.66
2019-05-02T00:49:50.870Z,10.67
2019-05-02T00:52:18.840Z,10.61
2019-05-02T00:54:47.426Z,10.65
2019-05-02T00:57:19.439Z,10.61
2019-05-02T00:59:44.607Z,10.54
2019-05-02T01:02:22.557Z,10.54
2019-05-02T01:04:50.545Z,10.35
2019-05-02T01:07:32.965Z,10.36
2019-05-02T01:10:01.500Z,10.40
2019-05-02T01:12:30.601Z,10.43
2019-05-02T01:14:57.215Z,10.40
2019-05-02T01:17:31.034Z,10.31
2019-05-02T01:20:02.051Z,10.34
2019-05-02T01:22:31.052Z,10.25
2019-05-02T01:24:57.628Z,10.22
2019-05-02T01:27:36.159Z,10.19
2019-05-02T01:30:06.029Z,10.21
2019-05-02T01:32:42.052Z,10.12
2019-05-02T01:35:26.958Z,10.09
2019-05-02T01:38:09.989Z,10.03
2019-05-02T01:40:38.028Z,10.03
2019-05-02T01:43:24.106Z,10.02
2019-05-02T01:45:52.761Z,10.00
2019-05-02T01:48:26.361Z,9.90
2019-05-02T01:50:55.312Z,9.89
2019-05-02T01:53:23.708Z,9.88
2019-05-02T01:55:52.080Z,9.84
2019-05-02T01:58:22.872Z,9.79
2019-05-02T02:00:52.525Z,9.78
2019-05-02T02:03:19.542Z,9.79
2019-05-02T02:05:48.116Z,9.75
2019-05-02T02:08:16.214Z,9.70
2019-05-02T02:10:44.207Z,9.70
2019-05-02T02:13:13.948Z,9.68
2019-05-02T02:15:40.542Z,9.60
2019-05-02T02:18:07.440Z,9.56
2019-05-02T02:20:55.656Z,9.55
2019-05-02T02:23:45.063Z,9.54
2019-05-02T02:26:15.723Z,9.55
2019-05-02T02:28:42.823Z,9.49
2019-05-02T02:31:09.830Z,9.45
2019-05-02T02:33:40.995Z,9.44
2019-05-02T02:36:06.298Z,9.50
2019-05-02T02:38:35.361Z,9.38
2019-05-02T02:41:06.509Z,9.34
2019-05-02T02:43:34.904Z,9.33
2019-05-02T02:46:15.910Z,9.27
2019-05-02T02:48:42.996Z,9.20
2019-05-02T02:51:22.678Z,9.15
2019-05-02T02:53:43.679Z,9.12
2019-05-02T02:56:10.619Z,9.08
2019-05-02T02:58:45.213Z,9.04
2019-05-02T03:01:07.798Z,9.02
2019-05-02T03:03:35.888Z,9.02
2019-05-02T03:06:07.522Z,9.08
2019-05-02T03:08:44.522Z,9.07
2019-05-02T03:11:07.834Z,8.97
2019-05-02T03:13:51.553Z,9.01
2019-05-02T03:16:22.622Z,8.97
2019-05-02T03:18:50.852Z,8.95
2019-05-02T03:21:20.342Z,8.91
2019-05-02T03:23:48.074Z,8.91
2019-05-02T03:26:17.101Z,8.90
2019-05-02T03:28:57.179Z,8.92
2019-05-02T03:31:25.116Z,8.85
2019-05-02T03:33:55.029Z,8.81
2019-05-02T03:36:27.949Z,8.77
2019-05-02T03:38:45.669Z,8.72
2019-05-02T03:41:20.945Z,8.76
2019-05-02T03:43:43.015Z,8.71
2019-05-02T03:46:13.695Z,8.68
2019-05-02T03:48:39.835Z,8.68
2019-05-02T03:51:19.933Z,8.68
2019-05-02T03:53:38.090Z,8.62
2019-05-02T03:56:10.552Z,8.61
2019-05-02T03:58:33.772Z,8.58
2019-05-02T04:01:03.338Z,8.59
2019-05-02T04:03:34.063Z,8.56
2019-05-02T04:06:03.200Z,8.58
2019-05-02T04:08:32.023Z,8.56
2019-05-02T04:11:19.278Z,8.57
2019-05-02T04:13:48.198Z,8.52
2019-05-02T04:16:17.607Z,8.59
2019-05-02T04:18:54.389Z,8.63
2019-05-02T04:21:24.124Z,8.58
2019-05-02T04:23:46.163Z,8.66
2019-05-02T04:26:14.667Z,8.66
2019-05-02T04:28:45.685Z,8.69
2019-05-02T04:31:15.261Z,8.80
2019-05-02T04:33:44.141Z,8.83
2019-05-02T04:36:15.351Z,8.89
2019-05-02T04:38:47.912Z,8.92
2019-05-02T04:41:11.579Z,9.02
2019-05-02T04:43:43.105Z,9.01
2019-05-02T04:46:12.065Z,9.07
2019-05-02T04:48:43.674Z,9.17
2019-05-02T04:51:09.986Z,9.27
2019-05-02T04:53:45.173Z,9.34
2019-05-02T04:56:10.552Z,9.45
2019-05-02T04:58:40.707Z,9.58
2019-05-02T05:01:10.486Z,9.52
2019-05-02T05:03:40.615Z,9.56
2019-05-02T05:06:12.206Z,9.69
2019-05-02T05:08:41.232Z,9.82
2019-05-02T05:11:09.305Z,9.89
2019-05-02T05:13:37.424Z,9.97
2019-05-02T05:16:08.706Z,10.08
2019-05-02T05:18:33.420Z,10.21
2019-05-02T05:21:00.062Z,10.20
2019-05-02T05:23:28.782Z,10.04
2019-05-02T05:26:03.363Z,10.28
2019-05-02T05:28:27.274Z,10.45
2019-05-02T05:30:58.281Z,10.65
2019-05-02T05:33:25.105Z,10.69
2019-05-02T05:36:00.492Z,10.84
2019-05-02T05:38:32.635Z,10.79
2019-05-02T05:41:03.175Z,10.89
2019-05-02T05:43:30.271Z,11.11
2019-05-02T05:46:09.077Z,11.18
2019-05-02T05:48:32.029Z,11.19
2019-05-02T05:50:58.282Z,11.24
2019-05-02T05:53:28.073Z,11.54
2019-05-02T05:55:59.051Z,11.68
2019-05-02T05:58:24.716Z,11.85
2019-05-02T06:00:55.445Z,11.95
2019-05-02T06:03:22.201Z,12.15
2019-05-02T06:05:49.576Z,12.20
2019-05-02T06:08:18.454Z,12.28
2019-05-02T06:10:50.503Z,12.30
2019-05-02T06:13:25.635Z,12.60
2019-05-02T06:16:02.759Z,12.76
2019-05-02T06:18:42.222Z,12.84
2019-05-02T06:21:18.232Z,12.98
2019-05-02T06:23:56.446Z,13.25
2019-05-02T06:26:25.028Z,13.43
2019-05-02T06:29:02.918Z,13.67
2019-05-02T06:31:38.312Z,13.73
2019-05-02T06:34:07.067Z,14.04
2019-05-02T06:36:36.893Z,14.22
2019-05-02T06:39:06.008Z,14.53
2019-05-02T06:41:33.825Z,14.79
2019-05-02T06:44:01.523Z,14.98
2019-05-02T06:46:29.743Z,14.96
2019-05-02T06:48:56.661Z,15.16
2019-05-02T06:51:23.932Z,15.27
2019-05-02T06:53:51.926Z,15.23
2019-05-02T06:56:19.802Z,15.42
2019-05-02T06:58:48.231Z,15.73
2019-05-02T07:01:16.296Z,15.78
2019-05-02T07:03:46.283Z,16.13
2019-05-02T07:06:13.849Z,16.13
2019-05-02T07:08:40.833Z,16.58
2019-05-02T07:11:11.246Z,16.78
2019-05-02T07:13:42.043Z,16.93
2019-05-02T07:16:37.780Z,17.21
2019-05-02T07:18:54.781Z,17.41
2019-05-02T07:21:23.615Z,17.50
2019-05-02T07:23:55.400Z,17.67
2019-05-02T07:26:24.352Z,17.89
2019-05-02T07:28:50.951Z,17.93
2019-05-02T07:31:17.548Z,18.17
2019-05-02T07:33:44.180Z,18.31
2019-05-02T07:36:11.577Z,18.57
2019-05-02T07:38:39.716Z,18.57
2019-05-02T07:41:06.411Z,18.74
2019-05-02T07:43:33.581Z,19.14
2019-05-02T07:46:01.231Z,19.04
2019-05-02T07:48:27.851Z,19.11
2019-05-02T07:50:56.675Z,19.60
2019-05-02T07:53:25.742Z,19.92
2019-05-02T07:55:53.465Z,20.25
2019-05-02T07:58:20.454Z,20.50
2019-05-02T08:00:48.855Z,20.63
2019-05-02T08:03:17.272Z,20.78
2019-05-02T08:05:44.202Z,20.92
2019-05-02T08:08:10.778Z,20.88
2019-05-02T08:10:37.763Z,21.22
2019-05-02T08:13:04.318Z,21.26
2019-05-02T08:15:30.918Z,21.65
2019-05-02T08:17:59.359Z,21.56
2019-05-02T08:20:26.404Z,21.60
2019-05-02T08:22:55.104Z,21.63
2019-05-02T08:25:21.851Z,21.66
2019-05-02T08:27:59.455Z,21.60
2019-05-02T08:30:28.091Z,21.61
2019-05-02T08:32:57.701Z,21.73
2019-05-02T08:35:28.091Z,21.57
2019-05-02T08:37:55.998Z,21.58
2019-05-02T08:40:23.088Z,21.58
2019-05-02T08:42:51.574Z,21.69
2019-05-02T08:45:18.287Z,21.42
2019-05-02T08:47:44.999Z,21.82
2019-05-02T08:50:11.670Z,22.09
2019-05-02T08:52:44.194Z,22.40
2019-05-02T08:55:11.209Z,22.50
2019-05-02T08:57:39.561Z,22.68
2019-05-02T09:00:07.155Z,23.12
2019-05-02T09:02:41.081Z,22.82
2019-05-02T09:05:06.111Z,22.18
2019-05-02T09:10:22.367Z,21.37
2019-05-02T09:13:25.999Z,21.31
2019-05-02T09:15:56.445Z,21.86
2019-05-02T09:18:29.920Z,21.99
2019-05-02T09:20:56.493Z,22.48
2019-05-02T09:23:22.868Z,22.57
2019-05-02T09:25:52.590Z,22.73
2019-05-02T09:28:25.365Z,22.80
2019-05-02T09:30:52.315Z,22.92
2019-05-02T09:33:18.952Z,22.90
2019-05-02T09:35:46.725Z,23.29
2019-05-02T09:38:16.321Z,23.29
2019-05-02T09:40:47.207Z,23.10
2019-05-02T09:43:12.897Z,23.24
2019-05-02T09:45:44.613Z,22.63
2019-05-02T09:48:12.582Z,22.76
2019-05-02T09:50:41.979Z,23.24
2019-05-02T09:53:13.080Z,23.18
2019-05-02T09:55:42.283Z,23.13
2019-05-02T09:58:10.447Z,22.91
2019-05-02T10:00:36.702Z,22.91
2019-05-02T10:03:05.152Z,23.31
2019-05-02T10:05:35.082Z,23.31
2019-05-02T10:08:07.302Z,23.16
2019-05-02T10:10:37.300Z,22.97
2019-05-02T10:13:06.251Z,22.57
2019-05-02T10:15:34.676Z,22.78
2019-05-02T10:18:11.030Z,22.79
2019-05-02T10:20:36.211Z,22.54
2019-05-02T10:23:02.245Z,22.76
2019-05-02T10:25:37.761Z,23.05
2019-05-02T10:27:58.693Z,23.08
2019-05-02T10:30:27.642Z,23.02
2019-05-02T10:32:57.230Z,23.53
2019-05-02T10:35:28.136Z,23.53
2019-05-02T10:37:53.122Z,23.25
2019-05-02T10:40:22.403Z,23.48
2019-05-02T10:42:49.361Z,23.65
2019-05-02T10:45:16.907Z,23.61
2019-05-02T10:47:44.018Z,23.40
2019-05-02T10:50:24.550Z,23.56
2019-05-02T10:52:52.710Z,23.69
2019-05-02T10:55:22.267Z,23.56
2019-05-02T10:57:49.192Z,23.73
2019-05-02T11:00:27.536Z,24.10
2019-05-02T11:02:56.225Z,23.99
2019-05-02T11:05:26.808Z,24.06
2019-05-02T11:07:56.863Z,23.86
2019-05-02T11:10:23.112Z,23.94
2019-05-02T11:12:52.692Z,23.95
2019-05-02T11:15:34.811Z,23.51
2019-05-02T11:18:02.836Z,23.51
2019-05-02T11:20:31.773Z,23.74
2019-05-02T11:22:58.267Z,23.54
2019-05-02T11:25:26.658Z,23.51
2019-05-02T11:27:57.426Z,23.77
2019-05-02T11:30:26.388Z,23.54
2019-05-02T11:32:58.552Z,23.80
2019-05-02T11:35:25.362Z,23.74
2019-05-02T11:37:53.364Z,23.72
2019-05-02T11:40:19.955Z,23.57
2019-05-02T11:42:47.798Z,23.65
2019-05-02T11:45:14.480Z,23.84
2019-05-02T11:47:42.367Z,24.13
2019-05-02T11:50:11.909Z,24.42
2019-05-02T11:55:13.045Z,24.45
2019-05-02T11:57:39.899Z,24.69
2019-05-02T12:00:09.071Z,24.50
2019-05-02T12:02:37.846Z,23.93
2019-05-02T12:05:07.867Z,23.75
2019-05-02T12:07:34.491Z,24.27
2019-05-02T12:10:04.508Z,24.16
2019-05-02T12:12:34.316Z,23.23
2019-05-02T12:15:03.632Z,22.75
2019-05-02T12:17:32.619Z,22.81
2019-05-02T12:20:02.079Z,22.70
2019-05-02T12:22:32.103Z,23.03
2019-05-02T12:25:00.340Z,23.50
2019-05-02T12:27:27.310Z,23.96
2019-05-02T12:29:57.759Z,23.95
2019-05-02T12:32:24.771Z,23.19
2019-05-02T12:34:52.583Z,22.92
2019-05-02T12:37:21.907Z,22.90
2019-05-02T12:39:48.646Z,22.99
2019-05-02T12:42:16.839Z,23.17
2019-05-02T12:44:43.870Z,23.29
2019-05-02T12:47:11.970Z,22.78
2019-05-02T12:49:38.503Z,22.69
2019-05-02T12:52:06.153Z,23.01
2019-05-02T12:54:32.734Z,23.11
2019-05-02T12:56:59.456Z,23.09
2019-05-02T12:59:27.776Z,23.18
2019-05-02T13:01:58.273Z,23.16
2019-05-02T13:04:27.910Z,23.52
2019-05-02T13:06:54.684Z,23.48
2019-05-02T13:09:23.289Z,23.46
2019-05-02T13:11:58.029Z,23.51
2019-05-02T13:14:26.532Z,23.36
2019-05-02T13:17:01.284Z,23.71
2019-05-02T13:19:37.191Z,23.77
2019-05-02T13:21:59.397Z,23.73
2019-05-02T13:24:29.146Z,23.73
2019-05-02T13:26:59.502Z,23.49
2019-05-02T13:29:27.247Z,23.59
2019-05-02T13:32:08.628Z,23.59
2019-05-02T13:34:36.618Z,23.85
2019-05-02T13:37:05.413Z,23.68
2019-05-02T13:39:34.617Z,23.76
2019-05-02T13:42:01.855Z,23.57
2019-05-02T13:44:32.562Z,23.23
2019-05-02T13:47:02.765Z,23.46
2019-05-02T13:49:29.930Z,23.69
2019-05-02T13:51:57.543Z,23.69
2019-05-02T13:54:24.541Z,23.52
2019-05-02T13:56:53.925Z,23.09
2019-05-02T13:59:22.243Z,23.09
2019-05-02T14:01:52.055Z,22.99
2019-05-02T14:04:19.133Z,23.03
2019-05-02T14:06:49.398Z,23.04
2019-05-02T14:09:22.462Z,23.19
2019-05-02T14:11:56.798Z,23.33
2019-05-02T14:14:27.207Z,23.60
2019-05-02T14:16:55.957Z,23.60
2019-05-02T14:19:22.572Z,23.50
2019-05-02T14:21:49.249Z,23.42
2019-05-02T14:24:17.659Z,23.37
2019-05-02T14:26:44.275Z,23.31
2019-05-02T14:29:16.283Z,23.09
2019-05-02T14:31:46.926Z,23.09
2019-05-02T14:34:27.740Z,22.97
2019-05-02T14:36:59.174Z,23.04
2019-05-02T14:39:23.064Z,23.04
2019-05-02T14:41:52.614Z,22.97
2019-05-02T14:44:23.278Z,22.89
2019-05-02T14:46:52.432Z,22.75
2019-05-02T14:49:22.079Z,22.72
2019-05-02T14:51:52.380Z,22.65
2019-05-02T14:54:19.563Z,22.67
2019-05-02T14:56:52.214Z,22.47
2019-05-02T14:59:20.136Z,22.50
2019-05-02T15:01:57.941Z,22.26
2019-05-02T15:04:23.787Z,22.19
2019-05-02T15:06:52.560Z,22.25
2019-05-02T15:09:26.884Z,22.38
2019-05-02T15:11:57.901Z,22.44
2019-05-02T15:14:29.393Z,22.44
2019-05-02T15:16:58.459Z,22.41
2019-05-02T15:19:27.656Z,22.42
2019-05-02T15:21:56.156Z,22.27
2019-05-02T15:24:23.169Z,22.19
2019-05-02T15:26:53.931Z,22.04
2019-05-02T15:29:27.110Z,22.11
2019-05-02T15:32:07.294Z,22.17
2019-05-02T15:34:46.240Z,22.06
2019-05-02T15:37:09.866Z,22.02
2019-05-02T15:42:05.823Z,22.13
2019-05-02T15:44:32.468Z,22.10
2019-05-02T15:47:05.183Z,21.94
2019-05-02T15:49:32.102Z,21.76
2019-05-02T15:51:58.967Z,21.73
2019-05-02T15:54:25.556Z,21.59
2019-05-02T15:57:00.327Z,21.53
2019-05-02T15:59:24.201Z,21.28
2019-05-02T16:01:55.385Z,21.23
2019-05-02T16:04:25.688Z,21.20
2019-05-02T16:06:53.468Z,21.23
2019-05-02T16:09:21.608Z,21.34
2019-05-02T16:11:53.253Z,21.32
2019-05-02T16:14:22.613Z,21.29
2019-05-02T16:16:49.310Z,21.07
2019-05-02T16:19:24.836Z,20.99
2019-05-02T16:22:06.652Z,20.97
2019-05-02T16:24:32.086Z,20.85
2019-05-02T16:26:58.823Z,20.80
2019-05-02T16:29:28.489Z,20.84
2019-05-02T16:31:59.722Z,20.77
2019-05-02T16:34:31.718Z,20.77
2019-05-02T16:37:13.643Z,20.76
2019-05-02T16:39:42.574Z,20.62
2019-05-02T16:42:08.667Z,20.60
2019-05-02T16:44:35.678Z,20.48
2019-05-02T16:47:03.564Z,20.39
2019-05-02T16:49:32.211Z,20.37
2019-05-02T16:52:04.914Z,20.31
2019-05-02T16:54:36.205Z,20.17
2019-05-02T16:56:59.097Z,20.10
2019-05-02T16:59:32.387Z,20.06
2019-05-02T17:02:07.597Z,19.95
2019-05-02T17:04:28.746Z,19.84
2019-05-02T17:07:05.522Z,19.66
2019-05-02T17:09:38.796Z,19.52
2019-05-02T17:12:15.100Z,19.31
2019-05-02T17:14:50.573Z,19.23
2019-05-02T17:17:13.283Z,19.24
2019-05-02T17:19:41.690Z,19.20
2019-05-02T17:22:08.381Z,19.14
2019-05-02T17:24:34.997Z,19.03
2019-05-02T17:27:02.578Z,18.94
2019-05-02T17:29:29.274Z,18.92
2019-05-02T17:31:59.195Z,18.82
2019-05-02T17:34:30.697Z,18.73
2019-05-02T17:36:59.108Z,18.68
2019-05-02T17:39:23.781Z,18.62
2019-05-02T17:41:52.401Z,18.53
2019-05-02T17:44:22.182Z,18.48
2019-05-02T17:46:58.030Z,18.44
2019-05-02T17:49:18.380Z,18.39
2019-05-02T17:52:11.252Z,18.37
2019-05-02T17:54:35.490Z,18.26
2019-05-02T17:57:02.388Z,18.22
2019-05-02T17:59:34.655Z,18.15
2019-05-02T18:01:58.009Z,18.07
2019-05-02T18:04:24.619Z,18.07
2019-05-02T18:06:54.210Z,18.03
2019-05-02T18:09:21.675Z,17.94
2019-05-02T18:11:48.376Z,17.89
2019-05-02T18:14:24.034Z,17.87
2019-05-02T18:16:55.544Z,17.83
2019-05-02T18:19:24.488Z,17.75
2019-05-02T18:21:52.703Z,17.72
2019-05-02T18:24:22.220Z,17.62
2019-05-02T18:26:48.980Z,17.51
2019-05-02T18:29:15.597Z,17.44
2019-05-02T18:31:47.307Z,17.38
2019-05-02T18:34:14.344Z,17.28
2019-05-02T18:36:41.604Z,17.22
2019-05-02T18:39:08.044Z,17.13
2019-05-02T18:41:37.265Z,17.05
2019-05-02T18:44:05.018Z,17.00
2019-05-02T18:46:36.806Z,16.92
2019-05-02T18:49:03.010Z,16.87
2019-05-02T18:51:31.979Z,16.83
2019-05-02T18:54:04.556Z,16.77
2019-05-02T18:56:35.656Z,16.77
2019-05-02T18:59:02.614Z,16.68
2019-05-02T19:01:29.436Z,16.68
2019-05-02T19:03:56.524Z,16.59
2019-05-02T19:06:23.208Z,16.48
2019-05-02T19:08:52.430Z,16.48
2019-05-02T19:11:22.116Z,16.43
2019-05-02T19:13:49.189Z,16.39
2019-05-02T19:16:23.944Z,16.38
2019-05-02T19:18:49.047Z,16.29
2019-05-02T19:21:18.031Z,16.28
2019-05-02T19:23:44.635Z,16.19
2019-05-02T19:26:15.087Z,16.12
2019-05-02T19:28:42.866Z,16.15
2019-05-02T19:31:10.029Z,16.12
2019-05-02T19:33:37.368Z,16.02
2019-05-02T19:36:05.515Z,16.02
2019-05-02T19:38:34.891Z,16.05
2019-05-02T19:41:08.739Z,16.03
2019-05-02T19:43:34.864Z,16.02
2019-05-02T19:46:02.202Z,15.96
2019-05-02T19:48:32.993Z,15.93
2019-05-02T19:50:57.967Z,15.88
2019-05-02T19:53:25.965Z,15.83
2019-05-02T19:55:57.287Z,15.87
2019-05-02T19:58:21.157Z,15.81
2019-05-02T20:00:48.039Z,15.83
2019-05-02T20:03:21.517Z,15.73
2019-05-02T20:05:48.345Z,15.74
2019-05-02T20:08:19.779Z,15.73
2019-05-02T20:10:49.410Z,15.70
2019-05-02T20:13:20.341Z,15.67
2019-05-02T20:15:57.042Z,15.67
2019-05-02T20:18:27.976Z,15.66
2019-05-02T20:21:02.592Z,15.59
2019-05-02T20:23:35.257Z,15.61
2019-05-02T20:25:59.321Z,15.46
2019-05-02T20:28:26.041Z,15.41
2019-05-02T20:30:54.138Z,15.30
2019-05-02T20:33:23.059Z,15.32
2019-05-02T20:35:49.655Z,15.33
2019-05-02T20:38:16.221Z,15.29
2019-05-02T20:40:42.917Z,15.26
2019-05-02T20:43:09.589Z,15.20
2019-05-02T20:45:36.179Z,15.18
2019-05-02T20:48:03.067Z,15.11
2019-05-02T20:50:31.911Z,15.12
2019-05-02T20:52:58.706Z,15.08
2019-05-02T20:55:27.170Z,15.10
2019-05-02T20:57:54.712Z,15.11
2019-05-02T21:00:24.920Z,15.08
2019-05-02T21:02:51.951Z,15.05
2019-05-02T21:05:21.858Z,15.06
2019-05-02T21:07:59.097Z,15.03
2019-05-02T21:10:27.591Z,15.09
2019-05-02T21:12:54.177Z,15.09
2019-05-02T21:15:21.794Z,15.11
2019-05-02T21:17:48.835Z,15.04
2019-05-02T21:20:15.494Z,14.97
2019-05-02T21:22:43.289Z,14.95
2019-05-02T21:25:13.061Z,14.95
2019-05-02T21:27:41.805Z,14.96
2019-05-02T21:30:12.344Z,14.99
2019-05-02T21:32:40.260Z,14.96
2019-05-02T21:35:07.056Z,14.97
2019-05-02T21:37:35.110Z,14.91
2019-05-02T21:40:02.864Z,14.87
2019-05-02T21:42:29.536Z,14.76
2019-05-02T21:44:56.230Z,14.83
2019-05-02T21:47:25.729Z,14.81
2019-05-02T21:49:57.862Z,14.77
2019-05-02T21:52:32.990Z,14.80
2019-05-02T21:55:01.954Z,14.80
2019-05-02T21:57:28.736Z,14.80
2019-05-02T21:59:55.416Z,14.84
2019-05-02T22:02:23.147Z,14.83
2019-05-02T22:04:49.822Z,14.81
2019-05-02T22:07:16.423Z,14.78
2019-05-02T22:09:43.365Z,14.76
2019-05-02T22:12:11.825Z,14.76
2019-05-02T22:14:39.500Z,14.85
2019-05-02T22:17:07.788Z,14.89
2019-05-02T22:19:34.402Z,14.92
2019-05-02T22:22:01.682Z,14.93
2019-05-02T22:24:28.617Z,14.95
2019-05-02T22:26:55.224Z,14.98
2019-05-02T22:29:21.999Z,15.04
2019-05-02T22:31:48.820Z,14.99
2019-05-02T22:34:15.443Z,15.07
2019-05-02T22:36:42.457Z,15.05
2019-05-02T22:39:12.882Z,15.09
2019-05-02T22:41:39.504Z,15.03
2019-05-02T22:44:06.161Z,15.05
2019-05-02T22:46:43.059Z,15.09
2019-05-02T22:49:11.525Z,15.07
2019-05-02T22:51:42.619Z,15.07
2019-05-02T22:54:23.373Z,15.07
2019-05-02T22:56:42.637Z,15.09
2019-05-02T22:59:09.489Z,15.13
2019-05-02T23:01:36.470Z,15.13
2019-05-02T23:04:03.629Z,15.11
2019-05-02T23:06:31.088Z,15.12
2019-05-02T23:08:58.783Z,15.04
2019-05-02T23:11:25.466Z,14.98
2019-05-02T23:13:52.126Z,14.87
2019-05-02T23:16:18.778Z,14.88
2019-05-02T23:18:45.379Z,14.84
2019-05-02T23:21:12.706Z,14.78
2019-05-02T23:23:41.716Z,14.71
2019-05-02T23:26:12.985Z,14.63
2019-05-02T23:28:44.353Z,14.67
2019-05-02T23:31:14.074Z,14.64
2019-05-02T23:33:56.892Z,14.64
2019-05-02T23:36:23.797Z,14.63
2019-05-02T23:38:52.209Z,14.58
2019-05-02T23:41:19.058Z,14.58
2019-05-02T23:43:45.680Z,14.57
2019-05-02T23:46:12.623Z,14.57
2019-05-02T23:48:41.949Z,14.61
2019-05-02T23:51:08.795Z,14.59
2019-05-02T23:53:35.421Z,14.55
2019-05-02T23:56:02.054Z,14.55
2019-05-02T23:58:28.660Z,14.57
